createdAt,value
2022-08-05T00:00:19.407Z,21.85
2022-08-05T00:02:51.662Z,21.57
2022-08-05T00:06:02.792Z,21.37
2022-08-05T00:08:32.541Z,21.83
2022-08-05T00:10:57.133Z,21.64
2022-08-05T00:13:39.389Z,21.20
2022-08-05T00:16:12.679Z,21.40
2022-08-05T00:18:44.400Z,21.31
2022-08-05T00:21:14.436Z,21.21
2022-08-05T00:23:46.823Z,21.49
2022-08-05T00:26:22.460Z,21.95
2022-08-05T00:28:50.959Z,21.83
2022-08-05T00:31:54.113Z,21.77
2022-08-05T00:34:53.626Z,22.12
2022-08-05T00:37:12.848Z,22.13
2022-08-05T00:39:44.357Z,22.03
2022-08-05T00:42:32.615Z,22.23
2022-08-05T00:45:00.968Z,21.85
2022-08-05T00:47:53.174Z,22.17
2022-08-05T00:50:18.395Z,22.01
2022-08-05T00:52:48.944Z,21.98
2022-08-05T00:55:16.763Z,21.96
2022-08-05T00:57:57.992Z,22.01
2022-08-05T01:00:27.587Z,21.94
2022-08-05T01:02:56.498Z,21.99
2022-08-05T01:05:27.382Z,22.01
2022-08-05T01:08:41.989Z,22.09
2022-08-05T01:10:52.204Z,22.04
2022-08-05T01:13:27.363Z,22.04
2022-08-05T01:16:26.401Z,22.28
2022-08-05T01:19:00.674Z,22.34
2022-08-05T01:21:58.253Z,22.26
2022-08-05T01:24:48.674Z,22.40
2022-08-05T01:27:34.687Z,22.37
2022-08-05T01:30:20.268Z,22.30
2022-08-05T01:33:08.236Z,22.44
2022-08-05T01:35:51.989Z,22.50
2022-08-05T01:38:27.147Z,22.43
2022-08-05T01:40:59.813Z,22.65
2022-08-05T01:43:30.746Z,22.52
2022-08-05T01:46:07.310Z,22.02
2022-08-05T01:48:49.782Z,21.74
2022-08-05T01:51:19.452Z,21.95
2022-08-05T01:53:56.961Z,22.30
2022-08-05T01:58:11.541Z,22.07
2022-08-05T01:59:21.103Z,22.15
2022-08-05T02:01:54.813Z,21.99
2022-08-05T02:04:25.654Z,21.89
2022-08-05T02:06:53.905Z,21.96
2022-08-05T02:09:21.962Z,21.97
2022-08-05T02:12:10.131Z,21.86
2022-08-05T02:14:44.774Z,21.95
2022-08-05T02:18:14.625Z,21.87
2022-08-05T02:20:20.791Z,21.79
2022-08-05T02:22:57.397Z,21.84
2022-08-05T02:25:33.040Z,21.87
2022-08-05T02:28:04.302Z,21.71
2022-08-05T02:30:51.883Z,21.96
2022-08-05T02:33:35.784Z,22.14
2022-08-05T02:36:09.955Z,22.03
2022-08-05T02:38:43.739Z,21.77
2022-08-05T02:41:22.903Z,22.01
2022-08-05T02:44:02.368Z,21.85
2022-08-05T02:46:53.414Z,21.79
2022-08-05T02:49:36.448Z,21.71
2022-08-05T02:52:09.100Z,21.41
2022-08-05T02:54:41.673Z,21.92
2022-08-05T02:58:09.161Z,21.76
2022-08-05T03:00:02.764Z,21.88
2022-08-05T03:02:38.418Z,22.01
2022-08-05T03:05:10.817Z,21.82
2022-08-05T03:08:06.992Z,21.32
2022-08-05T03:10:29.680Z,21.33
2022-08-05T03:15:24.651Z,21.58
2022-08-05T03:17:55.492Z,21.64
2022-08-05T03:20:25.189Z,21.76
2022-08-05T03:22:55.235Z,21.53
2022-08-05T03:25:32.553Z,21.53
2022-08-05T03:28:03.293Z,21.18
2022-08-05T03:30:34.181Z,20.95
2022-08-05T03:33:03.861Z,21.36
2022-08-05T03:35:41.305Z,21.39
2022-08-05T03:38:12.538Z,21.32
2022-08-05T03:40:45.396Z,21.12
2022-08-05T03:44:08.930Z,21.33
2022-08-05T03:46:05.133Z,21.14
2022-08-05T03:48:36.715Z,20.90
2022-08-05T03:52:35.369Z,20.70
2022-08-05T03:55:49.743Z,21.02
2022-08-05T03:56:58.922Z,21.25
2022-08-05T03:59:47.000Z,21.38
2022-08-05T04:02:38.763Z,21.48
2022-08-05T04:05:14.031Z,21.40
2022-08-05T04:07:57.135Z,21.09
2022-08-05T04:10:30.803Z,21.52
2022-08-05T04:13:03.509Z,21.19
2022-08-05T04:15:32.842Z,20.59
2022-08-05T04:18:03.229Z,20.83
2022-08-05T04:20:31.223Z,21.16
2022-08-05T04:23:01.087Z,21.11
2022-08-05T04:25:56.984Z,21.15
2022-08-05T04:28:17.247Z,21.15
2022-08-05T04:30:45.276Z,21.01
2022-08-05T04:33:13.224Z,20.99
2022-08-05T04:36:16.571Z,20.80
2022-08-05T04:38:39.889Z,21.02
2022-08-05T04:41:10.098Z,21.04
2022-08-05T04:43:46.521Z,20.93
2022-08-05T04:46:28.119Z,20.94
2022-08-05T04:48:58.720Z,20.95
2022-08-05T04:51:30.515Z,21.01
2022-08-05T04:54:02.301Z,21.22
2022-08-05T04:56:34.964Z,21.29
2022-08-05T04:59:21.979Z,21.37
2022-08-05T05:02:35.622Z,21.50
2022-08-05T05:04:47.518Z,21.17
2022-08-05T05:07:17.047Z,21.22
2022-08-05T05:09:46.799Z,21.52
2022-08-05T05:12:14.913Z,21.89
2022-08-05T05:14:49.269Z,22.15
2022-08-05T05:17:23.848Z,22.56
2022-08-05T05:19:55.050Z,22.86
2022-08-05T05:22:26.386Z,23.16
2022-08-05T05:24:59.795Z,23.34
2022-08-05T05:27:44.231Z,23.53
2022-08-05T05:30:30.717Z,23.82
2022-08-05T05:33:09.174Z,23.80
2022-08-05T05:35:47.344Z,23.85
2022-08-05T05:38:27.090Z,23.93
2022-08-05T05:40:57.480Z,23.95
2022-08-05T05:43:54.399Z,24.05
2022-08-05T05:46:17.736Z,24.24
2022-08-05T05:48:47.773Z,24.29
2022-08-05T05:51:20.973Z,24.24
2022-08-05T05:53:57.709Z,24.30
2022-08-05T05:56:32.806Z,24.46
2022-08-05T05:59:05.831Z,24.67
2022-08-05T06:01:38.091Z,24.73
2022-08-05T06:04:11.271Z,25.02
2022-08-05T06:06:41.767Z,25.10
2022-08-05T06:09:17.440Z,25.18
2022-08-05T06:12:01.035Z,25.31
2022-08-05T06:14:31.017Z,25.46
2022-08-05T06:16:59.375Z,25.55
2022-08-05T06:19:35.088Z,25.68
2022-08-05T06:22:03.999Z,25.81
2022-08-05T06:24:32.065Z,25.89
2022-08-05T06:27:01.293Z,25.93
2022-08-05T06:29:49.472Z,25.87
2022-08-05T06:32:25.610Z,25.93
2022-08-05T06:34:56.503Z,25.81
2022-08-05T06:37:56.996Z,25.99
2022-08-05T06:40:18.304Z,26.13
2022-08-05T06:42:52.777Z,26.09
2022-08-05T06:45:44.649Z,26.28
2022-08-05T06:48:36.498Z,26.50
2022-08-05T06:50:58.392Z,26.45
2022-08-05T06:53:29.124Z,26.53
2022-08-05T06:55:58.219Z,26.72
2022-08-05T06:58:34.922Z,26.74
2022-08-05T07:01:06.670Z,27.12
2022-08-05T07:03:34.625Z,27.15
2022-08-05T07:06:05.877Z,27.21
2022-08-05T07:08:47.214Z,27.34
2022-08-05T07:11:16.334Z,27.41
2022-08-05T07:14:03.466Z,27.54
2022-08-05T07:17:58.471Z,27.61
2022-08-05T07:22:28.520Z,27.64
2022-08-05T07:24:59.889Z,27.77
2022-08-05T07:27:57.993Z,27.72
2022-08-05T07:30:33.694Z,27.78
2022-08-05T07:33:05.041Z,28.15
2022-08-05T07:36:04.527Z,28.09
2022-08-05T07:38:26.338Z,28.16
2022-08-05T07:41:35.152Z,28.69
2022-08-05T07:43:51.869Z,28.67
2022-08-05T07:46:25.481Z,29.03
2022-08-05T07:49:03.026Z,28.57
2022-08-05T07:51:37.134Z,28.86
2022-08-05T07:54:08.332Z,28.47
2022-08-05T07:57:02.335Z,28.29
2022-08-05T07:59:38.380Z,28.99
2022-08-05T08:02:17.013Z,29.08
2022-08-05T08:04:49.640Z,29.42
2022-08-05T08:07:22.501Z,29.72
2022-08-05T08:09:52.708Z,29.66
2022-08-05T08:12:33.446Z,29.69
2022-08-05T08:15:15.552Z,29.25
2022-08-05T08:17:52.379Z,29.74
2022-08-05T08:20:45.140Z,29.75
2022-08-05T08:23:59.798Z,29.68
2022-08-05T08:26:00.215Z,29.06
2022-08-05T08:28:36.943Z,29.08
2022-08-05T08:31:15.101Z,29.22
2022-08-05T08:33:51.401Z,28.88
2022-08-05T08:36:29.569Z,28.31
2022-08-05T08:39:14.859Z,28.86
2022-08-05T08:41:50.798Z,28.96
2022-08-05T08:45:17.167Z,29.40
2022-08-05T08:47:47.333Z,29.32
2022-08-05T08:50:31.645Z,29.12
2022-08-05T08:53:01.876Z,28.60
2022-08-05T08:56:04.658Z,28.62
2022-08-05T08:58:26.230Z,28.48
2022-08-05T09:01:11.046Z,28.03
2022-08-05T09:03:45.645Z,28.57
2022-08-05T09:06:20.005Z,28.58
2022-08-05T09:08:49.641Z,29.65
2022-08-05T09:11:17.660Z,30.15
2022-08-05T09:14:54.639Z,30.15
2022-08-05T09:16:54.049Z,29.93
2022-08-05T09:19:24.713Z,29.56
2022-08-05T09:22:30.838Z,29.68
2022-08-05T09:24:58.460Z,30.88
2022-08-05T09:28:05.018Z,31.37
2022-08-05T09:30:23.774Z,31.40
2022-08-05T09:32:52.992Z,30.80
2022-08-05T09:35:27.218Z,30.60
2022-08-05T09:38:12.454Z,30.60
2022-08-05T09:40:53.593Z,31.32
2022-08-05T09:43:41.138Z,31.50
2022-08-05T09:46:28.048Z,31.76
2022-08-05T09:49:08.105Z,31.80
2022-08-05T09:51:49.717Z,32.79
2022-08-05T09:54:31.603Z,32.89
2022-08-05T09:57:01.812Z,32.93
2022-08-05T09:59:34.806Z,33.07
2022-08-05T10:02:03.491Z,32.74
2022-08-05T10:04:38.451Z,33.12
2022-08-05T10:07:19.832Z,32.80
2022-08-05T10:10:13.848Z,33.42
2022-08-05T10:12:49.685Z,32.81
2022-08-05T10:15:24.220Z,33.06
2022-08-05T10:18:06.518Z,33.11
2022-08-05T10:20:36.804Z,33.74
2022-08-05T10:23:08.842Z,33.63
2022-08-05T10:25:55.907Z,33.96
2022-08-05T10:28:29.125Z,33.04
2022-08-05T10:32:53.120Z,33.76
2022-08-05T10:33:52.238Z,33.96
2022-08-05T10:36:23.596Z,32.95
2022-08-05T10:39:10.477Z,33.00
2022-08-05T10:41:52.398Z,32.71
2022-08-05T10:44:23.527Z,33.69
2022-08-05T10:46:53.884Z,33.68
2022-08-05T10:49:27.497Z,33.31
2022-08-05T10:52:05.312Z,33.45
2022-08-05T10:54:56.605Z,33.40
2022-08-05T10:57:33.850Z,34.34
2022-08-05T11:00:16.389Z,34.67
2022-08-05T11:03:25.435Z,34.17
2022-08-05T11:06:05.800Z,34.64
2022-08-05T11:08:39.289Z,34.51
2022-08-05T11:11:44.288Z,34.73
2022-08-05T11:14:15.058Z,35.08
2022-08-05T11:16:55.923Z,34.65
2022-08-05T11:20:10.894Z,35.29
2022-08-05T11:22:42.393Z,35.43
2022-08-05T11:26:05.098Z,35.22
2022-08-05T11:28:43.013Z,34.83
2022-08-05T11:31:57.768Z,34.63
2022-08-05T11:34:37.319Z,35.35
2022-08-05T11:37:06.100Z,35.20
2022-08-05T11:40:00.376Z,34.50
2022-08-05T11:42:33.114Z,35.46
2022-08-05T11:45:23.028Z,35.00
2022-08-05T11:47:58.636Z,34.29
2022-08-05T11:50:27.308Z,35.73
2022-08-05T11:52:58.197Z,35.56
2022-08-05T11:55:32.076Z,34.74
2022-08-05T11:58:10.453Z,34.81
2022-08-05T12:00:41.582Z,35.85
2022-08-05T12:03:28.479Z,35.35
2022-08-05T12:06:02.884Z,36.02
2022-08-05T12:08:32.676Z,35.88
2022-08-05T12:11:06.250Z,35.57
2022-08-05T12:13:48.828Z,35.15
2022-08-05T12:16:20.165Z,35.39
2022-08-05T12:18:55.254Z,34.87
2022-08-05T12:21:26.827Z,35.85
2022-08-05T12:24:05.025Z,35.66
2022-08-05T12:26:36.286Z,35.95
2022-08-05T12:29:09.508Z,35.86
2022-08-05T12:31:47.699Z,35.43
2022-08-05T12:34:25.996Z,35.28
2022-08-05T12:36:54.884Z,35.51
2022-08-05T12:39:34.737Z,36.36
2022-08-05T12:42:10.226Z,35.67
2022-08-05T12:44:44.485Z,35.68
2022-08-05T12:47:13.085Z,36.12
2022-08-05T12:50:04.430Z,36.24
2022-08-05T12:52:38.592Z,36.02
2022-08-05T12:55:23.547Z,36.33
2022-08-05T12:58:50.869Z,36.44
2022-08-05T13:02:01.450Z,36.46
2022-08-05T13:03:41.537Z,36.14
2022-08-05T13:06:16.497Z,35.43
2022-08-05T13:08:50.776Z,34.43
2022-08-05T13:11:59.830Z,34.52
2022-08-05T13:14:36.163Z,34.78
2022-08-05T13:17:10.299Z,35.18
2022-08-05T13:19:52.181Z,34.02
2022-08-05T13:22:28.546Z,35.78
2022-08-05T13:25:00.976Z,35.57
2022-08-05T13:27:38.736Z,35.87
2022-08-05T13:30:33.725Z,34.95
2022-08-05T13:32:57.459Z,35.80
2022-08-05T13:35:42.603Z,35.99
2022-08-05T13:38:28.237Z,36.28
2022-08-05T13:40:59.859Z,35.71
2022-08-05T13:43:45.825Z,35.56
2022-08-05T13:46:30.690Z,35.36
2022-08-05T13:49:09.830Z,35.16
2022-08-05T13:51:40.926Z,34.63
2022-08-05T13:54:11.685Z,34.53
2022-08-05T13:56:45.524Z,34.57
2022-08-05T13:59:21.410Z,34.96
2022-08-05T14:01:56.676Z,35.19
2022-08-05T14:04:50.335Z,35.20
2022-08-05T14:07:25.623Z,35.11
2022-08-05T14:10:18.822Z,34.65
2022-08-05T14:12:56.006Z,34.69
2022-08-05T14:16:05.347Z,34.12
2022-08-05T14:18:14.897Z,33.77
2022-08-05T14:20:46.883Z,34.09
2022-08-05T14:23:23.439Z,34.13
2022-08-05T14:25:58.509Z,34.23
2022-08-05T14:28:27.957Z,34.16
2022-08-05T14:30:56.138Z,33.57
2022-08-05T14:33:24.547Z,33.54
2022-08-05T14:35:54.453Z,32.95
2022-08-05T14:38:33.186Z,33.01
2022-08-05T14:41:07.504Z,33.08
2022-08-05T14:44:02.529Z,33.09
2022-08-05T14:46:28.937Z,32.67
2022-08-05T14:49:06.195Z,32.95
2022-08-05T14:51:36.380Z,33.18
2022-08-05T14:54:26.371Z,33.03
2022-08-05T14:56:55.612Z,33.40
2022-08-05T14:59:23.787Z,33.03
2022-08-05T15:01:51.697Z,32.82
2022-08-05T15:04:22.463Z,32.83
2022-08-05T15:06:50.690Z,32.59
2022-08-05T15:09:52.487Z,32.44
2022-08-05T15:12:09.358Z,32.90
2022-08-05T15:14:48.205Z,33.05
2022-08-05T15:17:45.737Z,32.86
2022-08-05T15:20:08.940Z,32.32
2022-08-05T15:22:40.887Z,32.29
2022-08-05T15:25:14.463Z,32.72
2022-08-05T15:27:52.338Z,32.89
2022-08-05T15:30:20.651Z,32.74
2022-08-05T15:32:50.506Z,32.86
2022-08-05T15:35:18.636Z,32.56
2022-08-05T15:38:34.763Z,32.47
2022-08-05T15:40:58.831Z,32.25
2022-08-05T15:43:26.965Z,32.27
2022-08-05T15:45:59.875Z,32.27
2022-08-05T15:48:29.350Z,31.57
2022-08-05T15:50:57.350Z,31.38
2022-08-05T15:53:26.458Z,31.39
2022-08-05T15:56:03.110Z,31.60
2022-08-05T15:58:36.906Z,31.27
2022-08-05T16:01:17.209Z,31.25
2022-08-05T16:03:48.417Z,30.79
2022-08-05T16:06:20.323Z,30.84
2022-08-05T16:08:50.916Z,30.64
2022-08-05T16:11:42.728Z,30.64
2022-08-05T16:14:17.055Z,30.87
2022-08-05T16:16:46.709Z,30.37
2022-08-05T16:19:25.236Z,30.47
2022-08-05T16:22:03.877Z,30.49
2022-08-05T16:24:41.068Z,30.28
2022-08-05T16:27:32.180Z,30.14
2022-08-05T16:30:13.329Z,30.04
2022-08-05T16:32:55.254Z,29.84
2022-08-05T16:35:27.831Z,29.76
2022-08-05T16:38:02.323Z,29.84
2022-08-05T16:40:52.043Z,29.65
2022-08-05T16:43:30.288Z,29.81
2022-08-05T16:46:04.279Z,29.64
2022-08-05T16:48:37.630Z,29.75
2022-08-05T16:51:09.469Z,29.76
2022-08-05T16:54:02.934Z,30.04
2022-08-05T16:56:29.201Z,29.65
2022-08-05T16:58:57.720Z,29.76
2022-08-05T17:01:27.023Z,29.76
2022-08-05T17:04:15.106Z,29.77
2022-08-05T17:06:43.126Z,29.85
2022-08-05T17:09:21.030Z,29.79
2022-08-05T17:11:53.635Z,30.00
2022-08-05T17:14:36.819Z,30.31
2022-08-05T17:17:09.287Z,29.84
2022-08-05T17:19:45.527Z,29.68
2022-08-05T17:22:24.697Z,29.29
2022-08-05T17:24:56.912Z,29.06
2022-08-05T17:27:27.308Z,29.07
2022-08-05T17:30:02.914Z,28.73
2022-08-05T17:32:34.614Z,28.62
2022-08-05T17:35:03.961Z,28.07
2022-08-05T17:37:40.938Z,28.00
2022-08-05T17:40:13.204Z,27.97
2022-08-05T17:42:49.876Z,27.88
2022-08-05T17:45:21.848Z,27.71
2022-08-05T17:47:54.918Z,27.59
2022-08-05T17:50:28.654Z,27.52
2022-08-05T17:53:00.066Z,27.41
2022-08-05T17:55:34.613Z,27.33
2022-08-05T17:58:11.135Z,27.38
2022-08-05T18:00:44.962Z,27.25
2022-08-05T18:03:55.953Z,27.04
2022-08-05T18:06:11.899Z,26.85
2022-08-05T18:08:44.672Z,26.74
2022-08-05T18:11:24.652Z,26.59
2022-08-05T18:14:04.376Z,26.78
2022-08-05T18:16:33.731Z,26.33
2022-08-05T18:19:03.254Z,26.28
2022-08-05T18:22:07.120Z,26.20
2022-08-05T18:24:19.115Z,25.99
2022-08-05T18:26:48.983Z,25.56
2022-08-05T18:29:17.037Z,25.45
2022-08-05T18:31:45.072Z,25.32
2022-08-05T18:34:14.825Z,25.23
2022-08-05T18:36:43.511Z,25.05
2022-08-05T18:39:42.106Z,24.92
2022-08-05T18:42:03.739Z,24.72
2022-08-05T18:44:34.873Z,24.95
2022-08-05T18:47:04.732Z,24.78
2022-08-05T18:49:57.949Z,24.62
2022-08-05T18:52:35.821Z,24.44
2022-08-05T18:55:10.391Z,24.17
2022-08-05T18:57:43.642Z,24.13
2022-08-05T19:00:27.220Z,24.21
2022-08-05T19:02:57.382Z,23.94
2022-08-05T19:06:12.136Z,24.08
2022-08-05T19:08:15.308Z,23.94
2022-08-05T19:10:43.452Z,24.00
2022-08-05T19:13:16.028Z,23.95
2022-08-05T19:15:58.802Z,23.79
2022-08-05T19:18:31.101Z,23.76
2022-08-05T19:21:00.533Z,23.74
2022-08-05T19:24:07.298Z,23.71
2022-08-05T19:26:19.578Z,23.49
2022-08-05T19:28:47.595Z,23.62
2022-08-05T19:31:17.954Z,23.54
2022-08-05T19:33:56.583Z,23.63
2022-08-05T19:36:27.252Z,23.49
2022-08-05T19:39:00.856Z,23.54
2022-08-05T19:41:34.801Z,23.32
2022-08-05T19:44:18.998Z,23.29
2022-08-05T19:46:47.053Z,23.11
2022-08-05T19:49:16.849Z,23.05
2022-08-05T19:52:04.616Z,23.04
2022-08-05T19:54:35.862Z,22.94
2022-08-05T19:57:06.675Z,22.76
2022-08-05T20:00:00.675Z,22.72
2022-08-05T20:02:26.473Z,22.68
2022-08-05T20:04:55.500Z,22.66
2022-08-05T20:07:46.188Z,22.42
2022-08-05T20:10:15.733Z,22.32
2022-08-05T20:12:48.357Z,22.31
2022-08-05T20:15:23.118Z,22.28
2022-08-05T20:18:10.989Z,22.20
2022-08-05T20:20:55.883Z,21.75
2022-08-05T20:23:39.818Z,21.90
2022-08-05T20:26:16.147Z,21.71
2022-08-05T20:28:46.077Z,21.34
2022-08-05T20:31:16.701Z,21.53
2022-08-05T20:33:45.564Z,21.37
2022-08-05T20:36:14.262Z,21.34
2022-08-05T20:38:53.494Z,21.38
2022-08-05T20:41:26.896Z,21.33
2022-08-05T20:44:18.707Z,21.24
2022-08-05T20:46:57.809Z,21.48
2022-08-05T20:49:26.071Z,21.37
2022-08-05T20:51:54.443Z,21.49
2022-08-05T20:54:25.394Z,21.44
2022-08-05T20:56:53.317Z,21.64
2022-08-05T20:59:26.442Z,21.34
2022-08-05T21:01:57.920Z,21.37
2022-08-05T21:04:27.107Z,21.37
2022-08-05T21:06:55.743Z,21.37
2022-08-05T21:09:25.183Z,21.12
2022-08-05T21:12:09.458Z,21.12
2022-08-05T21:14:39.082Z,21.31
2022-08-05T21:17:07.117Z,21.29
2022-08-05T21:19:46.465Z,21.14
2022-08-05T21:22:22.642Z,20.78
2022-08-05T21:24:54.298Z,20.90
2022-08-05T21:27:25.107Z,20.97
2022-08-05T21:29:55.808Z,21.01
2022-08-05T21:32:26.990Z,21.02
2022-08-05T21:35:08.887Z,20.85
2022-08-05T21:37:47.222Z,21.00
2022-08-05T21:40:16.965Z,20.95
2022-08-05T21:42:46.747Z,20.93
2022-08-05T21:45:24.175Z,20.73
2022-08-05T21:47:56.254Z,20.84
2022-08-05T21:50:25.485Z,20.77
2022-08-05T21:52:54.025Z,20.70
2022-08-05T21:56:01.615Z,20.77
2022-08-05T21:58:16.536Z,20.75
2022-08-05T22:00:51.476Z,20.59
2022-08-05T22:03:48.686Z,20.63
2022-08-05T22:06:08.202Z,20.65
2022-08-05T22:08:36.370Z,20.60
2022-08-05T22:11:15.705Z,20.34
2022-08-05T22:14:32.559Z,20.48
2022-08-05T22:16:41.913Z,20.47
2022-08-05T22:19:57.888Z,20.12
2022-08-05T22:22:08.136Z,20.29
2022-08-05T22:24:55.986Z,20.13
2022-08-05T22:28:08.942Z,20.14
2022-08-05T22:30:35.088Z,20.14
2022-08-05T22:33:04.358Z,20.09
2022-08-05T22:35:48.676Z,20.10
2022-08-05T22:38:16.989Z,20.10
2022-08-05T22:40:49.977Z,19.93
2022-08-05T22:43:36.544Z,19.95
2022-08-05T22:46:13.390Z,20.10
2022-08-05T22:48:42.167Z,19.86
2022-08-05T22:51:22.357Z,19.80
2022-08-05T22:53:50.524Z,19.90
2022-08-05T22:56:30.326Z,19.95
2022-08-05T22:59:02.857Z,19.92
2022-08-05T23:01:50.862Z,19.91
2022-08-05T23:04:19.827Z,19.90
2022-08-05T23:06:48.016Z,19.59
2022-08-05T23:09:27.674Z,19.84
2022-08-05T23:12:04.863Z,19.75
2022-08-05T23:14:35.286Z,19.92
2022-08-05T23:17:24.070Z,19.92
2022-08-05T23:20:02.451Z,19.66
2022-08-05T23:22:31.139Z,19.91
2022-08-05T23:24:59.120Z,19.71
2022-08-05T23:27:28.881Z,19.61
2022-08-05T23:30:01.694Z,19.51
2022-08-05T23:32:35.942Z,19.52
2022-08-05T23:35:03.827Z,19.56
2022-08-05T23:37:34.276Z,19.61
2022-08-05T23:40:07.801Z,19.54
2022-08-05T23:42:37.852Z,19.59
2022-08-05T23:45:14.117Z,19.85
2022-08-05T23:47:47.672Z,19.67
2022-08-05T23:50:19.975Z,19.76
2022-08-05T23:52:49.952Z,19.69
2022-08-05T23:55:19.261Z,19.59
2022-08-05T23:57:48.888Z,19.67
